createdAt,value
2022-09-20T00:00:50.369Z,99999.38
2022-09-20T00:06:14.838Z,100004.59
2022-09-20T00:11:37.050Z,100005.50
2022-09-20T00:16:58.868Z,100006.59
2022-09-20T00:22:20.729Z,100009.50
2022-09-20T00:27:42.788Z,100012.25
2022-09-20T00:33:04.890Z,100020.03
2022-09-20T00:38:26.702Z,100022.66
2022-09-20T00:43:48.478Z,100021.16
2022-09-20T00:49:25.544Z,100021.56
2022-09-20T00:54:48.123Z,100024.06
2022-09-20T01:00:11.864Z,100021.47
2022-09-20T01:05:35.737Z,100019.94
2022-09-20T01:10:57.564Z,100028.50
2022-09-20T01:16:20.946Z,100026.06
2022-09-20T01:21:43.240Z,100027.28
2022-09-20T01:27:17.128Z,100016.97
2022-09-20T01:33:17.457Z,100030.75
2022-09-20T01:38:56.178Z,100040.25
2022-09-20T01:44:45.637Z,100040.59
2022-09-20T01:50:34.214Z,100037.50
2022-09-20T01:56:17.454Z,100036.47
2022-09-20T02:01:45.218Z,100031.34
2022-09-20T02:07:51.458Z,100040.13
2022-09-20T02:13:47.643Z,100040.81
2022-09-20T02:19:40.536Z,100045.13
2022-09-20T02:25:22.575Z,100042.69
2022-09-20T02:30:56.779Z,100044.38
2022-09-20T02:36:37.053Z,100047.75
2022-09-20T02:42:20.637Z,100037.13
2022-09-20T02:47:47.351Z,100058.00
2022-09-20T02:53:09.012Z,100054.59
2022-09-20T02:58:48.550Z,100056.16
2022-09-20T03:04:40.058Z,100059.47
2022-09-20T03:10:01.776Z,100057.44
2022-09-20T03:15:57.311Z,100074.50
2022-09-20T03:21:34.720Z,100069.25
2022-09-20T03:27:09.619Z,100071.59
2022-09-20T03:32:48.802Z,100079.16
2022-09-20T03:38:25.501Z,100063.91
2022-09-20T03:43:56.421Z,100082.56
2022-09-20T03:49:33.559Z,100079.41
2022-09-20T03:55:07.405Z,100084.91
2022-09-20T04:01:00.146Z,100079.00
2022-09-20T04:06:40.765Z,100088.53
2022-09-20T04:12:22.471Z,100091.59
2022-09-20T04:18:12.135Z,100098.63
2022-09-20T04:24:06.607Z,100104.91
2022-09-20T04:29:44.425Z,100108.19
2022-09-20T04:35:43.802Z,100113.69
2022-09-20T04:41:51.132Z,100115.53
2022-09-20T04:47:21.882Z,100123.50
2022-09-20T04:52:52.671Z,100131.03
2022-09-20T04:58:39.709Z,100141.50
2022-09-20T05:04:30.604Z,100146.09
2022-09-20T05:10:01.871Z,100152.00
2022-09-20T05:15:41.809Z,100163.78
2022-09-20T05:21:15.349Z,100174.84
2022-09-20T05:26:43.108Z,100166.00
2022-09-20T05:32:39.882Z,100176.25
2022-09-20T05:38:20.266Z,100165.41
2022-09-20T05:44:06.387Z,100181.31
2022-09-20T05:50:04.238Z,100185.16
2022-09-20T05:55:50.769Z,100188.22
2022-09-20T06:01:24.784Z,100186.19
2022-09-20T06:06:49.560Z,100193.78
2022-09-20T06:12:48.787Z,100193.28
2022-09-20T06:18:16.292Z,100195.50
2022-09-20T06:23:38.116Z,100207.41
2022-09-20T06:29:05.482Z,100217.25
2022-09-20T06:34:28.632Z,100220.84
2022-09-20T06:40:03.006Z,100220.44
2022-09-20T06:45:24.880Z,100221.25
2022-09-20T06:50:46.707Z,100229.03
2022-09-20T06:56:14.391Z,100237.31
2022-09-20T07:01:36.715Z,100230.00
2022-09-20T07:07:07.339Z,100237.72
2022-09-20T07:12:31.004Z,100241.50
2022-09-20T07:17:52.846Z,100249.34
2022-09-20T07:23:14.918Z,100249.72
2022-09-20T07:28:36.716Z,100265.59
2022-09-20T07:33:58.658Z,100269.75
2022-09-20T07:39:20.446Z,100276.31
2022-09-20T07:44:42.256Z,100280.13
2022-09-20T07:50:04.784Z,100278.50
2022-09-20T07:55:26.592Z,100278.31
2022-09-20T08:00:56.685Z,100287.56
2022-09-20T08:06:18.737Z,100296.94
2022-09-20T08:11:42.057Z,100276.97
2022-09-20T08:17:03.844Z,100304.38
2022-09-20T08:22:25.656Z,100292.03
2022-09-20T08:27:54.005Z,100307.34
2022-09-20T08:33:15.792Z,100309.97
2022-09-20T08:44:36.562Z,100311.00
2022-09-20T08:50:00.857Z,100313.81
2022-09-20T08:55:27.928Z,100311.19
2022-09-20T09:00:50.179Z,100330.91
2022-09-20T09:06:18.405Z,100325.47
2022-09-20T09:11:45.742Z,100320.63
2022-09-20T09:17:10.458Z,100327.28
2022-09-20T09:22:35.252Z,100329.56
2022-09-20T09:28:03.154Z,100328.00
2022-09-20T09:33:29.084Z,100332.13
2022-09-20T09:39:11.430Z,100329.13
2022-09-20T09:44:33.350Z,100342.09
2022-09-20T09:50:01.886Z,100346.81
2022-09-20T09:55:37.826Z,100338.28
2022-09-20T10:01:03.041Z,100342.06
2022-09-20T10:06:57.972Z,100347.75
2022-09-20T10:12:34.677Z,100353.91
2022-09-20T10:18:28.843Z,100352.31
2022-09-20T10:24:17.968Z,100357.41
2022-09-20T10:30:04.859Z,100348.91
2022-09-20T10:35:36.771Z,100353.22
2022-09-20T10:41:16.307Z,100340.28
2022-09-20T10:46:44.081Z,100350.78
2022-09-20T10:52:13.532Z,100348.56
2022-09-20T10:57:46.736Z,100342.22
2022-09-20T11:03:17.761Z,100342.69
2022-09-20T11:08:40.842Z,100338.50
2022-09-20T11:14:21.363Z,100337.38
2022-09-20T11:20:02.199Z,100330.53
2022-09-20T11:25:38.509Z,100330.03
2022-09-20T11:31:20.288Z,100345.16
2022-09-20T11:36:49.151Z,100340.91
2022-09-20T11:42:16.772Z,100343.13
2022-09-20T11:47:56.022Z,100334.97
2022-09-20T11:53:26.836Z,100333.41
2022-09-20T11:58:54.486Z,100335.06
2022-09-20T12:04:39.003Z,100334.59
2022-09-20T12:10:05.327Z,100339.84
2022-09-20T12:15:31.455Z,100336.34
2022-09-20T12:20:56.353Z,100340.03
2022-09-20T12:26:21.173Z,100339.25
2022-09-20T12:31:51.170Z,100329.31
2022-09-20T12:37:12.920Z,100322.00
2022-09-20T12:42:35.444Z,100322.28
2022-09-20T12:47:57.398Z,100324.03
2022-09-20T12:53:19.444Z,100324.91
2022-09-20T12:58:52.390Z,100321.63
2022-09-20T13:04:39.182Z,100326.69
2022-09-20T13:10:20.906Z,100323.97
2022-09-20T13:15:48.933Z,100325.00
2022-09-20T13:21:10.836Z,100339.41
2022-09-20T13:26:41.122Z,100335.94
2022-09-20T13:32:31.535Z,100337.97
2022-09-20T13:37:53.260Z,100354.84
2022-09-20T13:43:29.549Z,100362.59
2022-09-20T13:49:12.464Z,100391.94
2022-09-20T13:54:34.228Z,100384.16
2022-09-20T13:59:56.790Z,100377.72
2022-09-20T14:05:19.997Z,100361.63
2022-09-20T14:10:41.810Z,100365.28
2022-09-20T14:16:04.044Z,100352.25
2022-09-20T14:21:27.932Z,100350.19
2022-09-20T14:27:19.288Z,100352.16
2022-09-20T14:32:50.675Z,100353.25
2022-09-20T14:38:15.134Z,100356.75
2022-09-20T14:43:37.082Z,100364.00
2022-09-20T14:49:23.848Z,100370.44
2022-09-20T14:55:00.044Z,100383.16
2022-09-20T15:00:21.892Z,100396.56
2022-09-20T15:05:49.288Z,100408.22
2022-09-20T15:11:18.639Z,100400.16
2022-09-20T15:16:40.537Z,100421.94
2022-09-20T15:22:02.455Z,100410.25
2022-09-20T15:27:28.222Z,100406.19
2022-09-20T15:32:50.296Z,100412.47
2022-09-20T15:38:13.309Z,100433.91
2022-09-20T15:43:35.090Z,100434.63
2022-09-20T15:48:59.814Z,100437.59
2022-09-20T15:54:21.582Z,100445.19
2022-09-20T15:59:43.518Z,100441.41
2022-09-20T16:05:05.568Z,100434.66
2022-09-20T16:10:27.342Z,100444.34
2022-09-20T16:16:00.124Z,100447.84
2022-09-20T16:21:22.570Z,100433.75
2022-09-20T16:26:44.783Z,100453.25
2022-09-20T16:32:06.578Z,100443.78
2022-09-20T16:37:28.683Z,100444.59
2022-09-20T16:42:52.463Z,100441.19
2022-09-20T16:48:14.626Z,100451.34
2022-09-20T16:53:36.731Z,100460.69
2022-09-20T16:58:58.709Z,100455.84
2022-09-20T17:04:21.228Z,100466.19
2022-09-20T17:09:43.442Z,100470.41
2022-09-20T17:15:06.069Z,100470.19
2022-09-20T17:20:28.373Z,100481.56
2022-09-20T17:26:01.945Z,100486.53
2022-09-20T17:31:29.589Z,100494.97
2022-09-20T17:36:52.578Z,100501.91
2022-09-20T17:42:14.375Z,100495.41
2022-09-20T17:47:36.331Z,100509.13
2022-09-20T17:52:58.103Z,100518.34
2022-09-20T17:58:19.907Z,100514.34
2022-09-20T18:03:44.413Z,100520.47
2022-09-20T18:09:10.721Z,100532.66
2022-09-20T18:14:32.568Z,100529.75
2022-09-20T18:19:54.399Z,100528.97
2022-09-20T18:25:16.443Z,100534.22
2022-09-20T18:30:38.446Z,100539.31
2022-09-20T18:36:02.527Z,100557.34
2022-09-20T18:41:27.091Z,100551.38
2022-09-20T18:46:49.775Z,100556.16
2022-09-20T18:52:11.873Z,100554.34
2022-09-20T18:57:35.059Z,100563.19
2022-09-20T19:03:11.686Z,100570.75
2022-09-20T19:08:38.434Z,100586.69
2022-09-20T19:14:10.310Z,100575.66
2022-09-20T19:19:53.735Z,100573.09
2022-09-20T19:25:25.955Z,100578.97
2022-09-20T19:30:47.959Z,100595.03
2022-09-20T19:36:10.272Z,100589.72
2022-09-20T19:42:04.673Z,100590.53
2022-09-20T19:47:44.483Z,100592.84
2022-09-20T19:53:06.933Z,100596.28
2022-09-20T19:58:28.951Z,100594.50
2022-09-20T20:03:52.221Z,100587.63
2022-09-20T20:09:45.648Z,100604.13
2022-09-20T20:15:39.151Z,100605.97
2022-09-20T20:21:01.010Z,100610.59
2022-09-20T20:26:26.410Z,100603.22
2022-09-20T20:31:48.216Z,100619.88
2022-09-20T20:37:10.172Z,100620.28
2022-09-20T20:42:32.152Z,100622.16
2022-09-20T20:47:57.854Z,100607.84
2022-09-20T20:53:19.774Z,100620.00
2022-09-20T20:58:43.179Z,100615.88
2022-09-20T21:04:05.542Z,100622.19
2022-09-20T21:09:27.347Z,100619.00
2022-09-20T21:14:49.140Z,100627.66
2022-09-20T21:20:10.928Z,100627.75
2022-09-20T21:25:32.887Z,100638.16
2022-09-20T21:31:00.472Z,100630.44
2022-09-20T21:36:28.966Z,100633.09
2022-09-20T21:41:50.796Z,100639.13
2022-09-20T21:47:12.605Z,100640.78
2022-09-20T21:52:34.382Z,100646.00
2022-09-20T21:57:56.149Z,100645.50
2022-09-20T22:03:17.956Z,100653.31
2022-09-20T22:08:48.626Z,100657.84
2022-09-20T22:14:11.764Z,100658.81
2022-09-20T22:19:33.534Z,100667.53
2022-09-20T22:24:55.323Z,100658.25
2022-09-20T22:30:17.230Z,100662.72
2022-09-20T22:35:44.487Z,100663.56
2022-09-20T22:41:06.572Z,100653.47
2022-09-20T22:46:29.962Z,100661.25
2022-09-20T22:51:51.769Z,100653.59
2022-09-20T22:57:13.694Z,100641.69
2022-09-20T23:02:35.559Z,100656.09
2022-09-20T23:07:57.326Z,100647.56
2022-09-20T23:13:19.147Z,100651.03
2022-09-20T23:18:41.834Z,100649.25
2022-09-20T23:24:05.729Z,100656.75
2022-09-20T23:29:27.762Z,100654.28
2022-09-20T23:34:49.516Z,100655.91
2022-09-20T23:40:11.506Z,100663.66
2022-09-20T23:45:33.337Z,100669.69
2022-09-20T23:50:55.374Z,100670.28
2022-09-20T23:56:17.706Z,100670.28
